createdAt,value
2019-01-19T00:02:05.017Z,5.90
2019-01-19T00:05:10.201Z,5.60
2019-01-19T00:07:47.751Z,5.67
2019-01-19T00:10:55.075Z,5.77
2019-01-19T00:13:45.828Z,5.40
2019-01-19T00:16:28.724Z,5.90
2019-01-19T00:19:39.459Z,5.17
2019-01-19T00:22:25.532Z,5.23
2019-01-19T00:25:20.882Z,5.70
2019-01-19T00:27:55.035Z,5.87
2019-01-19T00:30:40.986Z,5.33
2019-01-19T00:33:23.656Z,6.67
2019-01-19T00:36:12.810Z,5.87
2019-01-19T00:38:58.468Z,5.53
2019-01-19T00:41:53.927Z,6.20
2019-01-19T00:44:40.169Z,5.57
2019-01-19T00:47:36.638Z,6.03
2019-01-19T00:50:25.790Z,5.63
2019-01-19T00:53:05.758Z,6.43
2019-01-19T00:56:25.270Z,5.50
2019-01-19T00:58:59.473Z,5.60
2019-01-19T01:01:36.599Z,5.80
2019-01-19T01:04:31.367Z,5.70
2019-01-19T01:07:29.516Z,4.67
2019-01-19T01:10:12.531Z,5.20
2019-01-19T01:12:52.725Z,5.83
2019-01-19T01:15:46.596Z,4.00
2019-01-19T01:18:34.927Z,4.53
2019-01-19T01:21:28.803Z,4.07
2019-01-19T01:24:34.887Z,3.70
2019-01-19T01:27:17.882Z,4.40
2019-01-19T01:30:00.799Z,3.80
2019-01-19T01:32:55.800Z,4.50
2019-01-19T01:35:54.173Z,4.00
2019-01-19T01:38:51.211Z,4.23
2019-01-19T01:41:50.301Z,3.63
2019-01-19T01:44:36.696Z,3.87
2019-01-19T01:47:44.050Z,3.37
2019-01-19T01:50:20.951Z,3.90
2019-01-19T01:53:27.345Z,3.50
2019-01-19T01:55:56.856Z,4.10
2019-01-19T01:58:31.037Z,3.20
2019-01-19T02:01:10.904Z,3.77
2019-01-19T02:04:19.287Z,2.83
2019-01-19T02:06:58.448Z,2.60
2019-01-19T02:10:02.756Z,3.90
2019-01-19T02:13:06.970Z,2.80
2019-01-19T02:15:55.708Z,3.63
2019-01-19T02:18:44.308Z,3.83
2019-01-19T02:21:39.662Z,3.20
2019-01-19T02:24:40.798Z,3.30
2019-01-19T02:27:23.875Z,3.77
2019-01-19T02:30:22.073Z,3.20
2019-01-19T02:33:32.535Z,4.03
2019-01-19T02:36:18.806Z,3.50
2019-01-19T02:39:16.839Z,3.40
2019-01-19T02:42:22.830Z,3.70
2019-01-19T02:45:11.232Z,4.07
2019-01-19T02:48:06.288Z,3.77
2019-01-19T02:50:54.983Z,3.43
2019-01-19T02:53:50.390Z,3.00
2019-01-19T02:56:39.559Z,3.10
2019-01-19T02:59:17.429Z,3.43
2019-01-19T03:01:57.181Z,3.43
2019-01-19T03:04:46.297Z,3.80
2019-01-19T03:07:35.475Z,3.13
2019-01-19T03:10:35.190Z,3.30
2019-01-19T03:13:21.562Z,3.70
2019-01-19T03:16:25.576Z,2.80
2019-01-19T03:19:35.856Z,3.03
2019-01-19T03:22:24.862Z,3.33
2019-01-19T03:25:07.663Z,3.10
2019-01-19T03:28:05.916Z,2.60
2019-01-19T03:30:54.436Z,3.07
2019-01-19T03:33:55.946Z,3.10
2019-01-19T03:37:03.565Z,3.57
2019-01-19T03:39:55.498Z,3.50
2019-01-19T03:42:54.708Z,3.10
2019-01-19T03:46:07.346Z,4.37
2019-01-19T03:49:09.399Z,3.70
2019-01-19T03:51:46.642Z,3.47
2019-01-19T03:54:26.532Z,2.87
2019-01-19T03:57:24.653Z,2.87
2019-01-19T04:00:19.844Z,3.70
2019-01-19T04:03:26.831Z,3.23
2019-01-19T04:06:03.788Z,3.97
2019-01-19T04:08:55.857Z,3.57
2019-01-19T04:11:35.621Z,3.80
2019-01-19T04:14:33.417Z,3.40
2019-01-19T04:17:31.655Z,2.70
2019-01-19T04:20:25.153Z,3.60
2019-01-19T04:22:55.254Z,3.60
2019-01-19T04:25:29.945Z,3.77
2019-01-19T04:28:01.023Z,3.17
2019-01-19T04:30:30.534Z,3.53
2019-01-19T04:33:00.046Z,3.40
2019-01-19T04:35:29.510Z,3.50
2019-01-19T04:37:59.005Z,3.30
2019-01-19T04:40:28.496Z,3.50
2019-01-19T04:42:58.246Z,3.53
2019-01-19T04:45:27.705Z,4.40
2019-01-19T04:47:57.238Z,2.97
2019-01-19T04:50:26.746Z,3.10
2019-01-19T04:52:56.217Z,4.60
2019-01-19T04:55:25.717Z,3.60
2019-01-19T04:57:55.201Z,3.37
2019-01-19T05:00:24.893Z,3.60
2019-01-19T05:02:54.389Z,3.50
2019-01-19T05:05:23.871Z,4.00
2019-01-19T05:07:53.375Z,3.03
2019-01-19T05:10:22.851Z,3.50
2019-01-19T05:12:52.325Z,4.40
2019-01-19T05:15:21.847Z,3.67
2019-01-19T05:17:51.325Z,3.33
2019-01-19T05:20:20.814Z,3.90
2019-01-19T05:22:50.306Z,3.73
2019-01-19T05:25:19.782Z,3.50
2019-01-19T05:27:49.264Z,3.70
2019-01-19T05:30:20.959Z,4.10
2019-01-19T05:32:50.554Z,6.83
2019-01-19T05:35:20.227Z,4.43
2019-01-19T05:37:49.731Z,3.83
2019-01-19T05:40:19.217Z,4.00
2019-01-19T05:42:48.686Z,4.00
2019-01-19T05:45:18.190Z,4.90
2019-01-19T05:47:47.679Z,4.63
2019-01-19T05:50:20.057Z,4.07
2019-01-19T05:52:49.557Z,5.60
2019-01-19T05:55:19.035Z,4.00
2019-01-19T05:57:48.522Z,4.20
2019-01-19T06:00:23.725Z,5.10
2019-01-19T06:02:53.208Z,3.67
2019-01-19T06:05:22.726Z,4.30
2019-01-19T06:07:52.263Z,4.00
2019-01-19T06:10:21.779Z,3.53
2019-01-19T06:12:51.277Z,4.60
2019-01-19T06:15:20.780Z,4.73
2019-01-19T06:17:50.270Z,4.80
2019-01-19T06:20:19.752Z,4.43
2019-01-19T06:22:49.242Z,4.73
2019-01-19T06:25:18.753Z,4.77
2019-01-19T06:27:48.283Z,4.37
2019-01-19T06:30:23.376Z,4.40
2019-01-19T06:32:52.863Z,3.80
2019-01-19T06:35:22.352Z,5.00
2019-01-19T06:37:51.923Z,4.00
2019-01-19T06:40:21.428Z,5.70
2019-01-19T06:42:50.895Z,5.87
2019-01-19T06:45:23.613Z,4.80
2019-01-19T06:47:53.092Z,4.43
2019-01-19T06:50:22.577Z,5.00
2019-01-19T06:52:52.108Z,4.43
2019-01-19T06:55:29.967Z,5.03
2019-01-19T06:57:59.483Z,4.57
2019-01-19T07:00:28.979Z,4.03
2019-01-19T07:02:58.458Z,4.40
2019-01-19T07:05:27.950Z,5.47
2019-01-19T07:07:57.437Z,4.63
2019-01-19T07:10:27.424Z,4.77
2019-01-19T07:12:56.950Z,5.27
2019-01-19T07:15:26.421Z,4.57
2019-01-19T07:17:55.901Z,4.27
2019-01-19T07:20:28.887Z,4.80
2019-01-19T07:22:58.373Z,5.60
2019-01-19T07:25:43.377Z,5.37
2019-01-19T07:28:13.618Z,4.30
2019-01-19T07:30:43.538Z,4.70
2019-01-19T07:33:28.310Z,4.97
2019-01-19T07:35:57.961Z,4.30
2019-01-19T07:38:27.435Z,5.33
2019-01-19T07:40:56.905Z,4.77
2019-01-19T07:43:26.420Z,4.87
2019-01-19T07:45:55.899Z,4.80
2019-01-19T07:48:25.395Z,4.00
2019-01-19T07:50:54.930Z,5.80
2019-01-19T07:53:24.400Z,4.57
2019-01-19T07:55:53.888Z,4.40
2019-01-19T07:58:24.004Z,4.80
2019-01-19T08:00:53.588Z,5.60
2019-01-19T08:03:23.130Z,5.80
2019-01-19T08:05:52.628Z,6.03
2019-01-19T08:08:22.095Z,6.40
2019-01-19T08:10:51.541Z,6.83
2019-01-19T08:13:21.358Z,6.10
2019-01-19T08:15:50.820Z,5.63
2019-01-19T08:18:20.296Z,5.57
2019-01-19T08:20:49.827Z,5.73
2019-01-19T08:23:19.267Z,5.73
2019-01-19T08:25:48.735Z,5.57
2019-01-19T08:28:18.233Z,6.10
2019-01-19T08:30:47.722Z,5.30
2019-01-19T08:33:17.206Z,5.50
2019-01-19T08:35:47.632Z,6.37
2019-01-19T08:38:17.082Z,6.30
2019-01-19T08:40:46.556Z,6.60
2019-01-19T08:43:17.630Z,5.80
2019-01-19T08:45:47.109Z,6.00
2019-01-19T08:48:16.979Z,6.00
2019-01-19T08:50:46.475Z,6.07
2019-01-19T08:53:15.942Z,5.50
2019-01-19T08:55:45.396Z,5.60
2019-01-19T08:58:14.988Z,5.00
2019-01-19T09:00:44.661Z,6.17
2019-01-19T09:03:14.136Z,6.67
2019-01-19T09:05:44.117Z,6.60
2019-01-19T09:08:13.589Z,7.20
2019-01-19T09:10:43.057Z,5.93
2019-01-19T09:13:12.573Z,6.80
2019-01-19T09:15:42.042Z,6.20
2019-01-19T09:18:11.673Z,6.33
2019-01-19T09:20:41.173Z,6.77
2019-01-19T09:23:12.210Z,6.17
2019-01-19T09:25:41.691Z,6.03
2019-01-19T09:28:11.189Z,5.90
2019-01-19T09:30:40.664Z,6.07
2019-01-19T09:33:10.129Z,5.80
2019-01-19T09:35:39.652Z,6.97
2019-01-19T09:38:09.072Z,6.00
2019-01-19T09:40:38.542Z,6.33
2019-01-19T09:43:08.029Z,6.40
2019-01-19T09:45:37.495Z,6.60
2019-01-19T09:48:07.092Z,5.97
2019-01-19T09:50:36.594Z,7.00
2019-01-19T09:53:06.066Z,6.10
2019-01-19T09:55:35.538Z,7.10
2019-01-19T09:58:05.054Z,7.43
2019-01-19T10:00:37.556Z,8.73
2019-01-19T10:03:05.722Z,7.10
2019-01-19T10:05:35.229Z,6.30
2019-01-19T10:08:04.730Z,6.33
2019-01-19T10:10:36.056Z,5.80
2019-01-19T10:13:05.666Z,6.97
2019-01-19T10:15:35.137Z,6.10
2019-01-19T10:18:04.604Z,4.93
2019-01-19T10:20:34.148Z,7.00
2019-01-19T10:23:03.615Z,7.10
2019-01-19T10:25:33.133Z,5.90
2019-01-19T10:28:02.631Z,6.70
2019-01-19T10:30:32.403Z,6.10
2019-01-19T10:33:01.870Z,6.70
2019-01-19T10:35:31.397Z,5.97
2019-01-19T10:38:00.880Z,6.30
2019-01-19T10:40:30.427Z,6.50
2019-01-19T10:43:00.003Z,5.93
2019-01-19T10:45:30.090Z,6.20
2019-01-19T10:47:59.560Z,6.20
2019-01-19T10:50:29.069Z,6.60
2019-01-19T10:52:58.647Z,7.20
2019-01-19T10:55:28.222Z,9.33
2019-01-19T10:57:58.012Z,6.20
2019-01-19T11:00:30.276Z,8.13
2019-01-19T11:03:00.463Z,6.90
2019-01-19T11:05:30.345Z,7.43
2019-01-19T11:08:03.987Z,6.60
2019-01-19T11:10:33.227Z,5.57
2019-01-19T11:13:02.769Z,5.20
2019-01-19T11:15:32.256Z,4.20
2019-01-19T11:18:01.723Z,3.97
2019-01-19T11:20:34.441Z,4.33
2019-01-19T11:23:04.007Z,4.77
2019-01-19T11:25:33.519Z,4.43
2019-01-19T11:28:03.088Z,3.60
2019-01-19T11:30:33.871Z,4.30
2019-01-19T11:33:03.359Z,4.30
2019-01-19T11:35:32.821Z,3.97
2019-01-19T11:38:02.386Z,3.77
2019-01-19T11:40:38.881Z,5.17
2019-01-19T11:43:09.079Z,4.87
2019-01-19T11:45:38.551Z,5.60
2019-01-19T11:48:08.028Z,5.17
2019-01-19T11:50:37.531Z,4.27
2019-01-19T11:53:06.996Z,5.97
2019-01-19T11:55:36.573Z,5.20
2019-01-19T11:58:06.373Z,7.80
2019-01-19T12:00:40.450Z,10.20
2019-01-19T12:03:10.997Z,7.10
2019-01-19T12:05:40.607Z,5.73
2019-01-19T12:08:10.574Z,4.23
2019-01-19T12:10:40.075Z,5.70
2019-01-19T12:13:09.735Z,5.83
2019-01-19T12:15:39.159Z,5.90
2019-01-19T12:18:08.622Z,5.03
2019-01-19T12:20:41.438Z,4.60
2019-01-19T12:23:11.099Z,5.90
2019-01-19T12:25:40.561Z,5.87
2019-01-19T12:28:10.057Z,5.80
2019-01-19T12:30:39.538Z,5.97
2019-01-19T12:33:09.001Z,4.30
2019-01-19T12:35:38.813Z,4.03
2019-01-19T12:38:08.288Z,4.10
2019-01-19T12:40:37.752Z,4.20
2019-01-19T12:43:14.410Z,5.50
2019-01-19T12:45:55.533Z,4.20
2019-01-19T12:48:25.035Z,5.30
2019-01-19T12:50:54.507Z,4.40
2019-01-19T12:53:23.993Z,5.40
2019-01-19T12:55:53.499Z,4.90
2019-01-19T12:58:22.964Z,5.40
2019-01-19T13:00:52.424Z,5.93
2019-01-19T13:03:21.935Z,4.63
2019-01-19T13:06:19.705Z,5.67
2019-01-19T13:08:49.309Z,4.87
2019-01-19T13:11:53.888Z,5.47
2019-01-19T13:14:23.637Z,5.10
2019-01-19T13:17:20.642Z,5.50
2019-01-19T13:20:18.725Z,6.07
2019-01-19T13:23:04.973Z,4.87
2019-01-19T13:25:41.840Z,5.23
2019-01-19T13:28:53.679Z,4.53
2019-01-19T13:31:42.181Z,4.97
2019-01-19T13:34:27.639Z,5.27
2019-01-19T13:37:16.842Z,4.73
2019-01-19T13:40:15.111Z,5.67
2019-01-19T13:43:01.033Z,6.10
2019-01-19T13:45:44.126Z,5.63
2019-01-19T13:48:48.461Z,6.10
2019-01-19T13:51:25.568Z,6.17
2019-01-19T13:54:20.842Z,6.30
2019-01-19T13:56:58.182Z,5.80
2019-01-19T13:59:41.290Z,6.27
2019-01-19T14:02:31.094Z,6.70
2019-01-19T14:05:50.787Z,6.47
2019-01-19T14:08:37.028Z,6.20
2019-01-19T14:11:32.454Z,6.30
2019-01-19T14:14:29.288Z,6.57
2019-01-19T14:17:39.913Z,6.57
2019-01-19T14:20:30.652Z,6.90
2019-01-19T14:23:30.309Z,6.50
2019-01-19T14:26:19.033Z,6.23
2019-01-19T14:29:21.682Z,6.17
2019-01-19T14:32:10.782Z,6.23
2019-01-19T14:35:18.059Z,5.73
2019-01-19T14:38:14.653Z,6.80
2019-01-19T14:41:18.566Z,5.77
2019-01-19T14:43:58.574Z,6.20
2019-01-19T14:46:54.385Z,6.23
2019-01-19T14:50:03.351Z,6.20
2019-01-19T14:52:57.072Z,6.67
2019-01-19T14:55:36.979Z,6.73
2019-01-19T14:58:41.204Z,9.90
2019-01-19T15:01:36.282Z,8.23
2019-01-19T15:04:19.453Z,7.83
2019-01-19T15:07:38.522Z,7.90
2019-01-19T15:10:44.295Z,7.00
2019-01-19T15:13:35.489Z,6.97
2019-01-19T15:16:26.210Z,6.87
2019-01-19T15:19:18.048Z,8.37
2019-01-19T15:22:25.319Z,8.33
2019-01-19T15:25:05.517Z,8.37
2019-01-19T15:28:08.552Z,7.10
2019-01-19T15:31:13.982Z,6.90
2019-01-19T15:34:08.963Z,7.10
2019-01-19T15:37:04.581Z,8.13
2019-01-19T15:39:42.048Z,8.33
2019-01-19T15:42:41.962Z,8.13
2019-01-19T15:45:39.712Z,8.10
2019-01-19T15:48:45.490Z,8.13
2019-01-19T15:51:25.757Z,6.97
2019-01-19T15:54:14.998Z,8.33
2019-01-19T15:57:18.186Z,7.80
2019-01-19T16:00:14.490Z,8.60
2019-01-19T16:03:14.578Z,8.87
2019-01-19T16:05:54.938Z,8.20
2019-01-19T16:08:29.160Z,7.53
2019-01-19T16:11:32.552Z,7.37
2019-01-19T16:14:33.837Z,9.00
2019-01-19T16:17:26.345Z,10.43
2019-01-19T16:20:29.099Z,7.30
2019-01-19T16:23:33.573Z,7.27
2019-01-19T16:26:38.158Z,7.97
2019-01-19T16:29:39.638Z,8.00
2019-01-19T16:32:31.953Z,8.10
2019-01-19T16:35:23.579Z,8.70
2019-01-19T16:38:24.371Z,8.83
2019-01-19T16:41:10.258Z,8.20
2019-01-19T16:43:50.214Z,10.00
2019-01-19T16:46:51.713Z,10.97
2019-01-19T16:49:41.645Z,11.73
2019-01-19T16:52:33.480Z,10.27
2019-01-19T16:55:22.418Z,9.70
2019-01-19T16:58:35.500Z,8.70
2019-01-19T17:01:30.493Z,9.23
2019-01-19T17:04:21.237Z,8.03
2019-01-19T17:07:01.274Z,8.40
2019-01-19T17:09:47.604Z,9.57
2019-01-19T17:12:21.791Z,9.60
2019-01-19T17:15:16.633Z,9.57
2019-01-19T17:18:35.085Z,10.17
2019-01-19T17:21:23.826Z,8.30
2019-01-19T17:24:09.975Z,10.27
2019-01-19T17:26:58.366Z,10.50
2019-01-19T17:30:01.150Z,10.37
2019-01-19T17:32:43.461Z,11.00
2019-01-19T17:35:41.155Z,9.93
2019-01-19T17:38:24.168Z,12.30
2019-01-19T17:41:37.662Z,9.37
2019-01-19T17:44:20.339Z,10.00
2019-01-19T17:47:00.401Z,9.93
2019-01-19T17:49:58.371Z,10.37
2019-01-19T17:52:41.222Z,8.80
2019-01-19T17:55:40.735Z,9.67
2019-01-19T17:58:46.857Z,10.10
2019-01-19T18:01:51.370Z,12.63
2019-01-19T18:04:43.366Z,9.97
2019-01-19T18:07:43.020Z,10.17
2019-01-19T18:10:41.116Z,8.30
2019-01-19T18:13:46.900Z,15.60
2019-01-19T18:16:29.461Z,14.83
2019-01-19T18:19:30.534Z,12.50
2019-01-19T18:22:28.789Z,11.63
2019-01-19T18:25:08.583Z,10.60
2019-01-19T18:28:00.830Z,11.10
2019-01-19T18:30:59.579Z,10.00
2019-01-19T18:33:42.667Z,11.00
2019-01-19T18:36:22.906Z,10.73
2019-01-19T18:39:25.761Z,11.90
2019-01-19T18:42:28.590Z,9.70
2019-01-19T18:45:26.176Z,9.80
2019-01-19T18:48:06.207Z,10.33
2019-01-19T18:51:01.293Z,10.50
2019-01-19T18:53:59.426Z,11.50
2019-01-19T18:56:57.714Z,11.33
2019-01-19T18:59:59.094Z,12.00
2019-01-19T19:03:05.064Z,12.80
2019-01-19T19:06:00.169Z,11.87
2019-01-19T19:08:37.405Z,12.00
2019-01-19T19:11:23.513Z,11.77
2019-01-19T19:14:00.832Z,10.97
2019-01-19T19:16:56.181Z,10.53
2019-01-19T19:19:48.336Z,11.80
2019-01-19T19:22:34.423Z,11.67
2019-01-19T19:25:49.123Z,10.80
2019-01-19T19:28:56.511Z,12.27
2019-01-19T19:31:39.347Z,12.07
2019-01-19T19:34:28.118Z,13.70
2019-01-19T19:37:19.076Z,11.70
2019-01-19T19:40:09.496Z,12.67
2019-01-19T19:42:56.104Z,11.53
2019-01-19T19:45:47.106Z,11.00
2019-01-19T19:48:46.697Z,11.37
2019-01-19T19:51:58.841Z,12.50
2019-01-19T19:54:28.335Z,13.20
2019-01-19T19:57:17.163Z,12.37
2019-01-19T19:59:46.676Z,12.00
2019-01-19T20:02:16.158Z,16.40
2019-01-19T20:04:45.631Z,13.47
2019-01-19T20:07:15.303Z,14.07
2019-01-19T20:09:44.769Z,12.20
2019-01-19T20:12:14.244Z,12.23
2019-01-19T20:14:43.687Z,12.20
2019-01-19T20:17:13.186Z,12.13
2019-01-19T20:19:42.662Z,11.83
2019-01-19T20:22:12.167Z,13.03
2019-01-19T20:24:41.642Z,13.63
2019-01-19T20:27:11.324Z,12.70
2019-01-19T20:29:41.121Z,12.60
2019-01-19T20:32:10.596Z,13.77
2019-01-19T20:34:40.094Z,12.50
2019-01-19T20:37:09.614Z,13.60
2019-01-19T20:39:39.122Z,12.70
2019-01-19T20:42:08.954Z,12.40
2019-01-19T20:44:38.482Z,13.77
2019-01-19T20:47:07.966Z,12.57
2019-01-19T20:49:37.445Z,12.63
2019-01-19T20:52:06.980Z,12.40
2019-01-19T20:54:36.463Z,12.70
2019-01-19T20:57:05.943Z,13.53
2019-01-19T20:59:35.482Z,13.80
2019-01-19T21:02:04.945Z,11.40
2019-01-19T21:04:34.418Z,11.40
2019-01-19T21:07:04.035Z,11.20
2019-01-19T21:09:33.697Z,12.70
2019-01-19T21:12:03.345Z,11.60
2019-01-19T21:14:32.884Z,10.73
2019-01-19T21:17:02.358Z,10.83
2019-01-19T21:19:31.845Z,11.40
2019-01-19T21:22:01.312Z,9.80
2019-01-19T21:24:30.873Z,9.83
2019-01-19T21:27:00.337Z,9.40
2019-01-19T21:29:29.764Z,9.83
2019-01-19T21:31:59.362Z,9.23
2019-01-19T21:34:28.836Z,8.80
2019-01-19T21:36:58.418Z,9.93
2019-01-19T21:39:27.915Z,10.17
2019-01-19T21:41:57.384Z,10.57
2019-01-19T21:44:26.898Z,11.57
2019-01-19T21:46:56.744Z,13.30
2019-01-19T21:49:26.216Z,12.47
2019-01-19T21:51:55.766Z,12.43
2019-01-19T21:54:25.239Z,13.90
2019-01-19T21:56:54.709Z,11.97
2019-01-19T21:59:24.215Z,12.53
2019-01-19T22:01:53.692Z,13.17
2019-01-19T22:04:23.265Z,12.97
2019-01-19T22:06:52.775Z,12.90
2019-01-19T22:09:24.132Z,12.47
2019-01-19T22:11:53.623Z,12.30
2019-01-19T22:14:23.251Z,12.30
2019-01-19T22:16:52.724Z,11.93
2019-01-19T22:19:22.233Z,11.80
2019-01-19T22:21:51.713Z,11.37
2019-01-19T22:24:21.172Z,11.00
2019-01-19T22:26:51.676Z,11.87
2019-01-19T22:29:21.249Z,11.30
2019-01-19T22:31:50.738Z,10.60
2019-01-19T22:34:20.252Z,11.30
2019-01-19T22:36:49.796Z,12.10
2019-01-19T22:39:19.281Z,11.27
2019-01-19T22:41:48.794Z,11.70
2019-01-19T22:44:18.277Z,12.17
2019-01-19T22:46:47.790Z,10.50
2019-01-19T22:49:17.292Z,11.97
2019-01-19T22:51:47.019Z,10.00
2019-01-19T22:54:16.643Z,12.60
2019-01-19T22:56:46.285Z,11.30
2019-01-19T22:59:15.759Z,12.17
2019-01-19T23:01:46.273Z,12.33
2019-01-19T23:04:15.823Z,12.30
2019-01-19T23:06:45.280Z,12.27
2019-01-19T23:09:14.767Z,11.77
2019-01-19T23:11:44.274Z,12.50
2019-01-19T23:14:13.943Z,12.67
2019-01-19T23:16:43.474Z,11.97
2019-01-19T23:19:13.126Z,12.60
2019-01-19T23:21:42.609Z,12.03
2019-01-19T23:24:12.087Z,11.90
2019-01-19T23:26:41.884Z,11.60
2019-01-19T23:29:11.353Z,13.40
2019-01-19T23:31:40.830Z,11.67
2019-01-19T23:34:10.367Z,11.10
2019-01-19T23:36:40.116Z,11.87
2019-01-19T23:39:09.688Z,13.30
2019-01-19T23:41:39.198Z,13.50
2019-01-19T23:44:08.878Z,12.57
2019-01-19T23:46:38.439Z,12.53
2019-01-19T23:49:07.965Z,14.30
2019-01-19T23:51:37.484Z,13.20
2019-01-19T23:54:06.989Z,13.20
2019-01-19T23:56:36.477Z,14.20
2019-01-19T23:59:06.162Z,12.53
